createdAt,value
2022-12-25T00:01:32.026Z,9.77
2022-12-25T00:03:58.776Z,9.81
2022-12-25T00:06:26.093Z,9.83
2022-12-25T00:08:52.622Z,9.86
2022-12-25T00:11:19.971Z,9.88
2022-12-25T00:13:47.350Z,9.91
2022-12-25T00:16:22.093Z,9.94
2022-12-25T00:18:49.963Z,9.96
2022-12-25T00:21:16.988Z,9.98
2022-12-25T00:23:43.825Z,10.02
2022-12-25T00:26:15.804Z,10.06
2022-12-25T00:28:42.430Z,10.08
2022-12-25T00:31:12.358Z,10.13
2022-12-25T00:33:41.132Z,10.16
2022-12-25T00:36:09.351Z,10.19
2022-12-25T00:38:37.489Z,10.22
2022-12-25T00:41:12.846Z,10.27
2022-12-25T00:43:41.772Z,10.31
2022-12-25T00:46:09.989Z,10.36
2022-12-25T00:48:36.876Z,10.42
2022-12-25T00:51:06.778Z,10.50
2022-12-25T00:53:33.213Z,10.58
2022-12-25T00:56:02.224Z,10.67
2022-12-25T00:58:31.683Z,10.74
2022-12-25T01:00:58.758Z,10.82
2022-12-25T01:03:25.880Z,10.87
2022-12-25T01:06:01.678Z,10.94
2022-12-25T01:08:30.555Z,11.00
2022-12-25T01:10:58.948Z,11.06
2022-12-25T01:13:26.064Z,11.08
2022-12-25T01:15:52.662Z,11.10
2022-12-25T01:18:20.333Z,11.13
2022-12-25T01:20:47.648Z,11.15
2022-12-25T01:23:14.661Z,11.18
2022-12-25T01:25:41.097Z,11.19
2022-12-25T01:28:07.503Z,11.21
2022-12-25T01:30:34.060Z,11.22
2022-12-25T01:33:00.460Z,11.21
2022-12-25T01:35:26.960Z,11.21
2022-12-25T01:37:53.438Z,11.22
2022-12-25T01:40:20.011Z,11.25
2022-12-25T01:42:46.463Z,11.26
2022-12-25T01:45:36.522Z,11.26
2022-12-25T01:48:08.309Z,11.28
2022-12-25T01:50:37.307Z,11.33
2022-12-25T01:53:04.392Z,11.35
2022-12-25T01:55:32.161Z,11.36
2022-12-25T01:57:58.640Z,11.34
2022-12-25T02:00:25.085Z,11.34
2022-12-25T02:02:51.616Z,11.36
2022-12-25T02:05:26.959Z,11.35
2022-12-25T02:07:53.926Z,11.33
2022-12-25T02:10:20.446Z,11.33
2022-12-25T02:12:48.172Z,11.36
2022-12-25T02:15:19.185Z,11.36
2022-12-25T02:17:45.558Z,11.34
2022-12-25T02:20:33.425Z,11.34
2022-12-25T02:23:37.613Z,11.33
2022-12-25T02:26:19.126Z,11.35
2022-12-25T02:28:52.376Z,11.36
2022-12-25T02:31:54.152Z,11.35
2022-12-25T02:34:40.370Z,11.36
2022-12-25T02:37:12.964Z,11.38
2022-12-25T02:40:00.165Z,11.38
2022-12-25T02:42:54.339Z,11.38
2022-12-25T02:46:11.522Z,11.36
2022-12-25T02:49:04.709Z,11.41
2022-12-25T02:51:54.109Z,11.41
2022-12-25T02:54:45.320Z,11.42
2022-12-25T02:57:34.481Z,11.42
2022-12-25T03:00:20.680Z,11.43
2022-12-25T03:03:07.325Z,11.44
2022-12-25T03:05:56.969Z,11.45
2022-12-25T03:08:30.348Z,11.45
2022-12-25T03:11:20.861Z,11.47
2022-12-25T03:13:51.363Z,11.46
2022-12-25T03:16:38.521Z,11.48
2022-12-25T03:19:25.343Z,11.48
2022-12-25T03:22:11.852Z,11.48
2022-12-25T03:24:57.208Z,11.46
2022-12-25T03:27:24.909Z,11.45
2022-12-25T03:30:10.013Z,11.45
2022-12-25T03:32:43.789Z,11.43
2022-12-25T03:35:24.358Z,11.44
2022-12-25T03:38:47.418Z,11.44
2022-12-25T03:41:48.730Z,11.40
2022-12-25T03:44:56.337Z,11.35
2022-12-25T03:47:52.038Z,11.34
2022-12-25T03:50:44.126Z,11.32
2022-12-25T03:53:34.526Z,11.32
2022-12-25T03:56:20.649Z,11.30
2022-12-25T03:59:11.118Z,11.29
2022-12-25T04:01:56.175Z,11.26
2022-12-25T04:04:41.072Z,11.26
2022-12-25T04:07:26.557Z,11.25
2022-12-25T04:10:11.480Z,11.24
2022-12-25T04:12:56.618Z,11.23
2022-12-25T04:15:41.660Z,11.20
2022-12-25T04:18:27.541Z,11.15
2022-12-25T04:21:12.414Z,11.13
2022-12-25T04:23:57.191Z,11.12
2022-12-25T04:26:42.206Z,11.11
2022-12-25T04:29:26.932Z,11.09
2022-12-25T04:32:11.915Z,11.08
2022-12-25T04:34:57.100Z,11.06
2022-12-25T04:37:23.536Z,11.04
2022-12-25T04:39:49.950Z,11.04
2022-12-25T04:42:17.447Z,11.04
2022-12-25T04:44:43.952Z,11.05
2022-12-25T04:47:11.697Z,11.05
2022-12-25T04:49:38.493Z,11.04
2022-12-25T04:52:05.030Z,11.06
2022-12-25T04:54:31.457Z,11.09
2022-12-25T04:56:57.839Z,11.08
2022-12-25T04:59:24.323Z,11.08
2022-12-25T05:01:50.813Z,11.10
2022-12-25T05:04:17.253Z,11.07
2022-12-25T05:06:43.842Z,11.06
2022-12-25T05:09:10.627Z,11.03
2022-12-25T05:11:37.108Z,11.02
2022-12-25T05:14:03.844Z,10.99
2022-12-25T05:16:30.470Z,11.00
2022-12-25T05:18:57.581Z,10.98
2022-12-25T05:21:24.009Z,10.98
2022-12-25T05:23:53.707Z,10.96
2022-12-25T05:26:25.785Z,10.98
2022-12-25T05:28:53.146Z,10.95
2022-12-25T05:31:20.540Z,10.94
2022-12-25T05:33:50.897Z,10.96
2022-12-25T05:36:17.848Z,10.93
2022-12-25T05:38:44.244Z,10.95
2022-12-25T05:41:10.609Z,10.96
2022-12-25T05:43:37.098Z,10.95
2022-12-25T05:46:07.972Z,10.96
2022-12-25T05:48:36.837Z,10.95
2022-12-25T05:51:09.365Z,10.94
2022-12-25T05:53:36.752Z,10.93
2022-12-25T05:56:05.429Z,10.93
2022-12-25T05:58:33.505Z,10.94
2022-12-25T06:00:59.953Z,10.92
2022-12-25T06:03:26.765Z,10.92
2022-12-25T06:05:53.695Z,10.89
2022-12-25T06:08:20.260Z,10.84
2022-12-25T06:10:47.076Z,10.85
2022-12-25T06:13:13.605Z,10.85
2022-12-25T06:15:40.934Z,10.87
2022-12-25T06:18:08.020Z,10.87
2022-12-25T06:20:34.428Z,10.87
2022-12-25T06:23:01.017Z,10.88
2022-12-25T06:25:27.722Z,10.87
2022-12-25T06:27:54.169Z,10.86
2022-12-25T06:30:20.562Z,10.88
2022-12-25T06:32:47.039Z,10.88
2022-12-25T06:35:13.431Z,10.89
2022-12-25T06:37:40.028Z,10.90
2022-12-25T06:40:07.098Z,10.89
2022-12-25T06:42:33.640Z,10.88
2022-12-25T06:45:00.114Z,10.85
2022-12-25T06:47:26.504Z,10.87
2022-12-25T06:50:02.285Z,10.88
2022-12-25T06:52:28.786Z,10.89
2022-12-25T06:54:55.199Z,10.91
2022-12-25T06:57:21.604Z,10.91
2022-12-25T06:59:54.585Z,10.92
2022-12-25T07:02:23.717Z,10.92
2022-12-25T07:04:51.081Z,10.92
2022-12-25T07:07:17.502Z,10.91
2022-12-25T07:09:43.948Z,10.93
2022-12-25T07:12:13.275Z,10.96
2022-12-25T07:14:39.882Z,10.90
2022-12-25T07:17:06.776Z,10.84
2022-12-25T07:19:33.151Z,10.86
2022-12-25T07:21:59.530Z,10.87
2022-12-25T07:24:26.109Z,10.88
2022-12-25T07:26:52.653Z,10.90
2022-12-25T07:29:22.226Z,10.89
2022-12-25T07:31:49.417Z,10.91
2022-12-25T07:34:19.129Z,10.93
2022-12-25T07:36:45.855Z,10.95
2022-12-25T07:39:12.870Z,10.98
2022-12-25T07:41:40.105Z,10.97
2022-12-25T07:44:06.522Z,10.99
2022-12-25T07:46:32.965Z,11.01
2022-12-25T07:49:00.402Z,11.04
2022-12-25T07:51:30.012Z,11.02
2022-12-25T07:53:56.798Z,10.99
2022-12-25T07:56:23.299Z,11.03
2022-12-25T07:58:49.929Z,11.03
2022-12-25T08:01:20.041Z,11.05
2022-12-25T08:04:01.559Z,11.02
2022-12-25T08:06:34.487Z,11.02
2022-12-25T08:09:18.858Z,10.99
2022-12-25T08:11:46.877Z,11.01
2022-12-25T08:14:13.719Z,11.03
2022-12-25T08:16:41.586Z,11.04
2022-12-25T08:19:09.246Z,11.02
2022-12-25T08:21:36.169Z,11.03
2022-12-25T08:24:03.264Z,11.05
2022-12-25T08:26:29.870Z,11.04
2022-12-25T08:28:56.383Z,11.06
2022-12-25T08:31:34.026Z,11.09
2022-12-25T08:34:02.776Z,11.12
2022-12-25T08:36:29.547Z,11.14
2022-12-25T08:39:02.734Z,11.14
2022-12-25T08:41:30.122Z,11.18
2022-12-25T08:43:56.728Z,11.21
2022-12-25T08:46:23.706Z,11.20
2022-12-25T08:48:50.808Z,11.20
2022-12-25T08:51:20.344Z,11.20
2022-12-25T08:53:48.593Z,11.22
2022-12-25T08:56:15.756Z,11.24
2022-12-25T08:58:43.044Z,11.26
2022-12-25T09:01:09.604Z,11.28
2022-12-25T09:03:36.341Z,11.30
2022-12-25T09:06:09.383Z,11.32
2022-12-25T09:08:41.035Z,11.30
2022-12-25T09:11:14.695Z,11.24
2022-12-25T09:13:41.405Z,11.26
2022-12-25T09:16:11.112Z,11.28
2022-12-25T09:18:37.637Z,11.26
2022-12-25T09:21:07.181Z,11.27
2022-12-25T09:23:34.376Z,11.28
2022-12-25T09:26:02.569Z,11.32
2022-12-25T09:28:29.382Z,11.34
2022-12-25T09:30:56.312Z,11.36
2022-12-25T09:33:23.636Z,11.35
2022-12-25T09:35:59.039Z,11.39
2022-12-25T09:38:26.265Z,11.38
2022-12-25T09:41:07.622Z,11.40
2022-12-25T09:43:45.635Z,11.41
2022-12-25T09:46:17.479Z,11.40
2022-12-25T09:48:52.878Z,11.41
2022-12-25T09:51:19.745Z,11.32
2022-12-25T09:53:55.166Z,11.36
2022-12-25T09:56:27.289Z,11.36
2022-12-25T09:58:54.656Z,11.38
2022-12-25T10:01:33.776Z,11.38
2022-12-25T10:04:40.787Z,11.36
2022-12-25T10:07:42.137Z,11.39
2022-12-25T10:10:24.091Z,11.36
2022-12-25T10:13:11.290Z,11.41
2022-12-25T10:15:52.836Z,11.39
2022-12-25T10:18:34.947Z,11.39
2022-12-25T10:21:09.355Z,11.38
2022-12-25T10:23:44.212Z,11.31
2022-12-25T10:26:31.889Z,11.27
2022-12-25T10:29:13.556Z,11.30
2022-12-25T10:31:41.706Z,11.34
2022-12-25T10:34:12.072Z,11.35
2022-12-25T10:36:38.590Z,11.37
2022-12-25T10:39:04.985Z,11.45
2022-12-25T10:41:49.066Z,11.55
2022-12-25T10:44:20.991Z,11.47
2022-12-25T10:46:52.637Z,11.48
2022-12-25T10:49:21.808Z,11.48
2022-12-25T10:51:48.615Z,11.48
2022-12-25T10:54:27.225Z,11.50
2022-12-25T10:56:57.932Z,11.50
2022-12-25T10:59:27.547Z,11.51
2022-12-25T11:01:55.957Z,11.56
2022-12-25T11:04:28.445Z,11.61
2022-12-25T11:07:05.124Z,11.66
2022-12-25T11:09:32.318Z,11.68
2022-12-25T11:11:59.761Z,11.75
2022-12-25T11:14:28.090Z,11.77
2022-12-25T11:16:54.864Z,11.89
2022-12-25T11:19:31.868Z,11.97
2022-12-25T11:22:01.188Z,12.04
2022-12-25T11:24:30.457Z,12.07
2022-12-25T11:27:06.028Z,12.11
2022-12-25T11:29:36.382Z,12.18
2022-12-25T11:32:05.620Z,12.14
2022-12-25T11:34:58.735Z,12.16
2022-12-25T11:37:34.800Z,12.20
2022-12-25T11:40:02.138Z,12.19
2022-12-25T11:42:36.531Z,12.26
2022-12-25T11:45:03.415Z,12.33
2022-12-25T11:47:44.925Z,12.42
2022-12-25T11:50:32.290Z,12.41
2022-12-25T11:53:05.923Z,12.46
2022-12-25T11:55:41.113Z,12.47
2022-12-25T11:58:32.182Z,12.48
2022-12-25T12:01:02.778Z,12.50
2022-12-25T12:03:41.443Z,12.56
2022-12-25T12:06:25.885Z,12.59
2022-12-25T12:08:58.410Z,12.63
2022-12-25T12:11:33.347Z,12.52
2022-12-25T12:14:23.200Z,12.50
2022-12-25T12:16:49.639Z,12.57
2022-12-25T12:19:26.892Z,12.56
2022-12-25T12:21:57.197Z,12.60
2022-12-25T12:24:29.370Z,12.59
2022-12-25T12:27:23.335Z,12.56
2022-12-25T12:29:53.125Z,12.57
2022-12-25T12:32:43.106Z,12.78
2022-12-25T12:35:17.803Z,12.90
2022-12-25T12:37:48.930Z,12.93
2022-12-25T12:40:35.764Z,12.92
2022-12-25T12:43:02.459Z,12.89
2022-12-25T12:45:32.446Z,12.91
2022-12-25T12:47:59.202Z,12.90
2022-12-25T12:50:40.924Z,12.86
2022-12-25T12:53:38.362Z,12.82
2022-12-25T12:56:17.323Z,12.85
2022-12-25T12:58:51.222Z,12.87
2022-12-25T13:01:26.613Z,12.97
2022-12-25T13:04:05.137Z,13.03
2022-12-25T13:06:42.509Z,13.09
2022-12-25T13:09:34.051Z,13.19
2022-12-25T13:12:06.610Z,13.24
2022-12-25T13:14:33.225Z,13.31
2022-12-25T13:16:59.786Z,13.33
2022-12-25T13:19:28.228Z,13.38
2022-12-25T13:22:01.216Z,13.46
2022-12-25T13:24:36.264Z,13.53
2022-12-25T13:27:25.140Z,13.54
2022-12-25T13:29:51.598Z,13.53
2022-12-25T13:32:24.031Z,13.58
2022-12-25T13:34:52.140Z,13.57
2022-12-25T13:37:21.524Z,13.62
2022-12-25T13:39:49.864Z,13.62
2022-12-25T13:42:20.630Z,13.57
2022-12-25T13:44:53.641Z,13.60
2022-12-25T13:47:32.220Z,13.58
2022-12-25T13:50:01.789Z,13.53
2022-12-25T13:52:34.451Z,13.55
2022-12-25T13:55:03.314Z,13.52
2022-12-25T13:57:41.934Z,13.48
2022-12-25T14:00:20.405Z,13.49
2022-12-25T14:02:47.583Z,13.47
2022-12-25T14:05:33.442Z,13.47
2022-12-25T14:08:15.440Z,13.46
2022-12-25T14:10:42.024Z,13.46
2022-12-25T14:13:12.778Z,13.48
2022-12-25T14:15:40.343Z,13.48
2022-12-25T14:18:13.434Z,13.51
2022-12-25T14:20:42.100Z,13.52
2022-12-25T14:23:15.449Z,13.52
2022-12-25T14:25:44.006Z,13.53
2022-12-25T14:28:32.052Z,13.56
2022-12-25T14:31:00.708Z,13.57
2022-12-25T14:33:35.220Z,13.57
2022-12-25T14:36:01.844Z,13.58
2022-12-25T14:38:39.494Z,13.59
2022-12-25T14:41:33.595Z,13.59
2022-12-25T14:44:24.703Z,13.60
2022-12-25T14:46:51.184Z,13.60
2022-12-25T14:49:24.099Z,13.62
2022-12-25T14:51:50.947Z,13.63
2022-12-25T14:54:23.061Z,13.65
2022-12-25T14:56:51.905Z,13.67
2022-12-25T14:59:25.888Z,13.68
2022-12-25T15:01:56.975Z,13.67
2022-12-25T15:04:24.796Z,13.67
2022-12-25T15:07:07.075Z,13.66
2022-12-25T15:09:33.923Z,13.65
2022-12-25T15:12:00.411Z,13.63
2022-12-25T15:14:27.625Z,13.66
2022-12-25T15:16:58.677Z,13.63
2022-12-25T15:19:37.216Z,13.62
2022-12-25T15:22:04.550Z,13.63
2022-12-25T15:24:31.141Z,13.64
2022-12-25T15:27:00.095Z,13.64
2022-12-25T15:29:59.698Z,13.63
2022-12-25T15:32:19.305Z,13.61
2022-12-25T15:34:47.246Z,13.60
2022-12-25T15:37:14.337Z,13.60
2022-12-25T15:39:40.871Z,13.60
2022-12-25T15:42:16.048Z,13.60
2022-12-25T15:44:43.711Z,13.58
2022-12-25T15:47:12.432Z,13.58
2022-12-25T15:49:38.969Z,13.56
2022-12-25T15:52:07.994Z,13.57
2022-12-25T15:54:34.420Z,13.56
2022-12-25T15:57:03.893Z,13.56
2022-12-25T15:59:30.534Z,13.52
2022-12-25T16:02:00.216Z,13.55
2022-12-25T16:04:28.150Z,13.55
2022-12-25T16:06:56.116Z,13.55
2022-12-25T16:09:22.866Z,13.50
2022-12-25T16:11:49.976Z,13.49
2022-12-25T16:14:16.563Z,13.45
2022-12-25T16:16:42.956Z,13.43
2022-12-25T16:19:09.389Z,13.40
2022-12-25T16:21:42.821Z,13.37
2022-12-25T16:24:09.462Z,13.36
2022-12-25T16:26:36.066Z,13.36
2022-12-25T16:29:07.017Z,13.37
2022-12-25T16:31:34.727Z,13.36
2022-12-25T16:34:01.552Z,13.38
2022-12-25T16:36:27.972Z,13.35
2022-12-25T16:38:54.376Z,13.38
2022-12-25T16:41:21.807Z,13.39
2022-12-25T16:43:48.938Z,13.35
2022-12-25T16:46:21.448Z,13.35
2022-12-25T16:48:48.513Z,13.31
2022-12-25T16:51:20.168Z,13.30
2022-12-25T16:53:47.324Z,13.25
2022-12-25T16:56:16.833Z,13.21
2022-12-25T16:58:46.455Z,13.22
2022-12-25T17:01:19.114Z,13.22
2022-12-25T17:03:47.264Z,13.18
2022-12-25T17:06:23.493Z,13.16
2022-12-25T17:08:51.867Z,13.16
2022-12-25T17:11:27.119Z,13.13
2022-12-25T17:13:54.261Z,13.13
2022-12-25T17:16:24.802Z,13.13
2022-12-25T17:18:56.133Z,13.11
2022-12-25T17:21:23.990Z,13.11
2022-12-25T17:23:50.829Z,13.09
2022-12-25T17:26:17.375Z,13.11
2022-12-25T17:28:43.814Z,13.11
2022-12-25T17:31:12.557Z,13.13
2022-12-25T17:33:40.689Z,13.14
2022-12-25T17:36:10.555Z,13.13
2022-12-25T17:38:37.524Z,13.14
2022-12-25T17:41:08.244Z,13.15
2022-12-25T17:43:37.156Z,13.13
2022-12-25T17:46:25.308Z,13.13
2022-12-25T17:48:53.051Z,13.15
2022-12-25T17:51:21.747Z,13.18
2022-12-25T17:53:50.898Z,13.22
2022-12-25T17:56:17.824Z,13.26
2022-12-25T17:58:44.552Z,13.29
2022-12-25T18:01:15.843Z,13.32
2022-12-25T18:03:43.918Z,13.34
2022-12-25T18:06:16.058Z,13.36
2022-12-25T18:08:44.483Z,13.35
2022-12-25T18:11:15.302Z,13.36
2022-12-25T18:13:44.773Z,13.36
2022-12-25T18:16:12.860Z,13.31
2022-12-25T18:18:39.928Z,13.28
2022-12-25T18:21:07.518Z,13.23
2022-12-25T18:23:35.069Z,13.25
2022-12-25T18:26:07.523Z,13.26
2022-12-25T18:28:34.600Z,13.28
2022-12-25T18:31:01.132Z,13.29
2022-12-25T18:33:28.317Z,13.30
2022-12-25T18:35:59.812Z,13.30
2022-12-25T18:38:27.433Z,13.30
2022-12-25T18:40:53.950Z,13.31
2022-12-25T18:43:20.781Z,13.32
2022-12-25T18:46:07.573Z,13.30
2022-12-25T18:48:35.100Z,13.34
2022-12-25T18:51:08.078Z,13.38
2022-12-25T18:53:35.411Z,13.41
2022-12-25T18:56:10.984Z,13.41
2022-12-25T18:58:38.246Z,13.43
2022-12-25T19:01:19.925Z,13.45
2022-12-25T19:03:46.583Z,13.42
2022-12-25T19:06:24.927Z,13.34
2022-12-25T19:08:51.671Z,13.38
2022-12-25T19:11:19.042Z,13.38
2022-12-25T19:13:46.068Z,13.37
2022-12-25T19:16:13.108Z,13.38
2022-12-25T19:18:40.227Z,13.37
2022-12-25T19:21:09.267Z,13.31
2022-12-25T19:23:37.762Z,13.28
2022-12-25T19:26:06.010Z,13.24
2022-12-25T19:28:32.539Z,13.23
2022-12-25T19:31:00.493Z,13.21
2022-12-25T19:33:27.676Z,13.16
2022-12-25T19:35:54.111Z,13.12
2022-12-25T19:38:20.589Z,13.11
2022-12-25T19:41:00.361Z,13.09
2022-12-25T19:43:32.804Z,13.09
2022-12-25T19:46:00.341Z,13.09
2022-12-25T19:48:27.351Z,13.08
2022-12-25T19:50:54.344Z,13.09
2022-12-25T19:53:23.479Z,13.08
2022-12-25T19:55:52.391Z,13.08
2022-12-25T19:58:20.203Z,13.09
2022-12-25T20:01:00.285Z,13.08
2022-12-25T20:03:27.044Z,13.07
2022-12-25T20:05:54.173Z,13.06
2022-12-25T20:08:20.591Z,13.00
2022-12-25T20:10:47.075Z,13.01
2022-12-25T20:13:13.498Z,12.97
2022-12-25T20:15:40.060Z,12.98
2022-12-25T20:18:06.714Z,12.97
2022-12-25T20:20:33.348Z,12.98
2022-12-25T20:22:59.779Z,12.99
2022-12-25T20:25:26.363Z,13.00
2022-12-25T20:27:52.743Z,12.99
2022-12-25T20:30:19.295Z,12.98
2022-12-25T20:32:50.396Z,12.94
2022-12-25T20:35:17.407Z,12.92
2022-12-25T20:37:44.108Z,12.91
2022-12-25T20:40:11.642Z,12.89
2022-12-25T20:42:38.108Z,12.86
2022-12-25T20:45:06.716Z,12.85
2022-12-25T20:47:34.115Z,12.84
2022-12-25T20:50:00.722Z,12.84
2022-12-25T20:52:27.118Z,12.87
2022-12-25T20:54:53.472Z,12.88
2022-12-25T20:57:19.839Z,12.91
2022-12-25T20:59:46.210Z,12.90
2022-12-25T21:02:34.263Z,12.90
2022-12-25T21:04:59.211Z,12.91
2022-12-25T21:07:25.730Z,12.87
2022-12-25T21:09:52.154Z,12.85
2022-12-25T21:12:18.584Z,12.86
2022-12-25T21:14:44.992Z,12.86
2022-12-25T21:17:11.525Z,12.88
2022-12-25T21:19:37.925Z,12.91
2022-12-25T21:22:04.296Z,12.92
2022-12-25T21:24:30.699Z,12.95
2022-12-25T21:26:57.160Z,12.97
2022-12-25T21:29:24.992Z,12.98
2022-12-25T21:32:11.840Z,13.00
2022-12-25T21:34:38.387Z,12.97
2022-12-25T21:37:04.790Z,12.95
2022-12-25T21:39:31.418Z,13.00
2022-12-25T21:41:58.044Z,13.03
2022-12-25T21:44:24.611Z,13.06
2022-12-25T21:46:51.057Z,13.11
2022-12-25T21:49:37.554Z,13.14
2022-12-25T21:52:07.066Z,13.15
2022-12-25T21:54:33.666Z,13.18
2022-12-25T21:57:00.155Z,13.19
2022-12-25T21:59:26.628Z,13.17
2022-12-25T22:01:53.567Z,13.21
2022-12-25T22:04:22.614Z,13.25
2022-12-25T22:07:08.170Z,13.26
2022-12-25T22:09:34.908Z,13.28
2022-12-25T22:12:20.589Z,13.30
2022-12-25T22:14:56.309Z,13.30
2022-12-25T22:17:50.621Z,13.31
2022-12-25T22:20:23.130Z,13.31
2022-12-25T22:22:49.955Z,13.33
2022-12-25T22:25:17.206Z,13.35
2022-12-25T22:27:45.320Z,13.30
2022-12-25T22:30:16.139Z,13.31
2022-12-25T22:32:42.925Z,13.34
2022-12-25T22:35:10.103Z,13.37
2022-12-25T22:37:36.496Z,13.39
2022-12-25T22:40:05.881Z,13.42
2022-12-25T22:42:32.612Z,13.41
2022-12-25T22:44:59.023Z,13.39
2022-12-25T22:47:25.431Z,13.36
2022-12-25T22:49:51.879Z,13.35
2022-12-25T22:52:18.468Z,13.31
2022-12-25T22:54:44.909Z,13.28
2022-12-25T22:57:11.346Z,13.23
2022-12-25T22:59:38.025Z,13.20
2022-12-25T23:02:04.677Z,13.20
2022-12-25T23:04:31.170Z,13.17
2022-12-25T23:06:57.811Z,13.15
2022-12-25T23:09:27.816Z,13.11
2022-12-25T23:11:58.596Z,13.07
2022-12-25T23:14:38.661Z,13.01
2022-12-25T23:17:31.157Z,13.00
2022-12-25T23:20:17.521Z,12.94
2022-12-25T23:23:03.455Z,12.89
2022-12-25T23:25:48.522Z,12.84
2022-12-25T23:28:34.905Z,12.81
2022-12-25T23:31:01.332Z,12.81
2022-12-25T23:33:27.705Z,12.88
2022-12-25T23:35:54.084Z,12.95
2022-12-25T23:38:20.541Z,13.02
2022-12-25T23:40:46.954Z,13.09
2022-12-25T23:43:13.397Z,13.20
2022-12-25T23:45:39.821Z,13.25
2022-12-25T23:48:06.373Z,13.33
2022-12-25T23:50:33.822Z,13.38
2022-12-25T23:53:00.242Z,13.50
2022-12-25T23:55:26.711Z,13.57
2022-12-25T23:57:53.144Z,13.68
